Orbital elements of COSMOS 2251 DEB
| Launched | 15 June 1993 |
| Flight ended | – |
| Launch site | Plesetsk Missile and Space Complex, Russia |
| Owner | Commonwealth of Independent States (former USSR) |
| NORAD ID | 34046 |
| Date fetched |
Epoch osculation |
Inc. [°] |
Ecc. | RA asc node [hr] |
Arg Peri. [°] |
Mean anom [°] |
Mean motion [rev/day] |
Abs. mag |
| Date fetched |
Epoch osculation |
Inc. [°] |
Ecc. | RA asc node [hr] |
Arg Peri. [°] |
Mean anom [°] |
Mean motion [rev/day] |
Abs. mag |
| 2026 May 03 17:57 | 2026 Apr 30 10:11:40 | 74.0350 | 0.00768 | 7.4152 | 163.3474 | 315.3616 | 14.47773 | – |
| 2026 May 02 17:57 | 2026 Apr 30 10:11:40 | 74.0350 | 0.00768 | 7.4152 | 163.3474 | 315.3616 | 14.47773 | – |
| 2026 May 01 17:56 | 2026 Apr 30 10:11:40 | 74.0350 | 0.00768 | 7.4152 | 163.3474 | 315.3616 | 14.47773 | – |
| 2026 Apr 30 17:56 | 2026 Apr 30 10:11:40 | 74.0350 | 0.00768 | 7.4152 | 163.3474 | 315.3616 | 14.47773 | – |
| 2026 Apr 29 17:57 | 2026 Apr 24 11:34:51 | 74.0360 | 0.00771 | 8.1566 | 175.9970 | 315.3616 | 14.47773 | – |
| 2026 Apr 28 17:56 | 2026 Apr 24 11:34:51 | 74.0360 | 0.00771 | 8.1566 | 175.9970 | 315.3616 | 14.47773 | – |
| 2026 Apr 27 17:58 | 2026 Apr 24 11:34:51 | 74.0360 | 0.00771 | 8.1566 | 175.9970 | 315.3616 | 14.47773 | – |
| 2026 Apr 26 17:58 | 2026 Apr 24 11:34:51 | 74.0360 | 0.00771 | 8.1566 | 175.9970 | 315.3616 | 14.47773 | – |
| 2026 Apr 25 17:58 | 2026 Apr 24 11:34:51 | 74.0360 | 0.00771 | 8.1566 | 175.9970 | 315.3616 | 14.47773 | – |
| 2026 Apr 24 17:59 | 2026 Apr 24 11:34:51 | 74.0360 | 0.00771 | 8.1566 | 175.9970 | 315.3616 | 14.47773 | – |
| 2026 Apr 23 17:57 | 2026 Apr 19 12:11:11 | 74.0358 | 0.00774 | 8.7771 | 186.5060 | 315.3616 | 14.47773 | – |
| 2026 Apr 22 17:57 | 2026 Apr 19 12:11:11 | 74.0358 | 0.00774 | 8.7771 | 186.5060 | 315.3616 | 14.47773 | – |
| 2026 Apr 21 17:57 | 2026 Apr 19 12:11:11 | 74.0358 | 0.00774 | 8.7771 | 186.5060 | 315.3616 | 14.47773 | – |
| 2026 Apr 20 17:57 | 2026 Apr 19 12:11:11 | 74.0358 | 0.00774 | 8.7771 | 186.5060 | 315.3616 | 14.47773 | – |
| 2026 Apr 19 17:58 | 2026 Apr 19 12:11:11 | 74.0358 | 0.00774 | 8.7771 | 186.5060 | 315.3616 | 14.47773 | – |
| 2026 Apr 18 17:56 | 2026 Apr 12 12:48:32 | 74.0378 | 0.00777 | 9.6470 | 201.0861 | 315.3616 | 14.47773 | – |
| 2026 Apr 16 17:57 | 2026 Apr 12 12:48:32 | 74.0378 | 0.00777 | 9.6470 | 201.0861 | 315.3616 | 14.47773 | – |
| 2026 Apr 14 17:57 | 2026 Apr 12 12:48:32 | 74.0378 | 0.00777 | 9.6470 | 201.0861 | 315.3616 | 14.47773 | – |
| 2026 Apr 13 17:57 | 2026 Apr 12 12:48:32 | 74.0378 | 0.00777 | 9.6470 | 201.0861 | 315.3616 | 14.47773 | – |
| 2026 Apr 12 17:57 | 2026 Apr 08 14:06:38 | 74.0375 | 0.00778 | 10.1391 | 209.2494 | 315.3616 | 14.47773 | – |
| 2026 Apr 11 17:57 | 2026 Apr 08 14:06:38 | 74.0375 | 0.00778 | 10.1391 | 209.2494 | 315.3616 | 14.47773 | – |
| 2026 Apr 10 17:58 | 2026 Apr 08 14:06:38 | 74.0375 | 0.00778 | 10.1391 | 209.2494 | 315.3616 | 14.47773 | – |
| 2026 Apr 09 18:01 | 2026 Apr 08 14:06:38 | 74.0375 | 0.00778 | 10.1391 | 209.2494 | 315.3616 | 14.47773 | – |
| 2026 Apr 08 17:57 | 2026 Apr 08 14:06:38 | 74.0375 | 0.00778 | 10.1391 | 209.2494 | 315.3616 | 14.47773 | – |
| 2026 Apr 07 17:57 | 2026 Apr 01 06:01:30 | 74.0388 | 0.00780 | 11.0540 | 224.3898 | 315.3616 | 14.47773 | – |
| 2026 Apr 06 17:57 | 2026 Apr 01 06:01:30 | 74.0388 | 0.00780 | 11.0540 | 224.3898 | 315.3616 | 14.47773 | – |